createdAt,value
2023-03-26T00:01:23.713Z,3.40
2023-03-26T00:03:27.747Z,1.58
2023-03-26T00:05:32.147Z,3.10
2023-03-26T00:07:34.987Z,4.55
2023-03-26T00:09:39.336Z,3.78
2023-03-26T00:11:43.022Z,8.27
2023-03-26T00:13:46.793Z,3.40
2023-03-26T00:15:49.612Z,2.92
2023-03-26T00:17:54.133Z,4.90
2023-03-26T00:19:59.673Z,6.85
2023-03-26T00:22:03.661Z,2.40
2023-03-26T00:24:10.129Z,2.47
2023-03-26T00:26:16.329Z,1.85
2023-03-26T00:28:22.256Z,3.00
2023-03-26T00:30:25.308Z,6.60
2023-03-26T00:32:29.629Z,6.00
2023-03-26T00:34:34.375Z,6.78
2023-03-26T00:36:37.392Z,4.97
2023-03-26T00:38:40.274Z,2.95
2023-03-26T00:40:45.570Z,3.65
2023-03-26T00:42:49.733Z,3.45
2023-03-26T00:44:54.925Z,1.67
2023-03-26T00:46:57.753Z,1.92
2023-03-26T00:49:01.890Z,1.65
2023-03-26T00:51:05.800Z,1.65
2023-03-26T00:53:12.012Z,1.92
2023-03-26T00:55:15.995Z,1.60
2023-03-26T00:57:34.532Z,2.40
2023-03-26T00:59:40.442Z,2.50
2023-03-26T01:01:44.856Z,1.48
2023-03-26T01:04:04.862Z,1.75
2023-03-26T01:06:13.655Z,1.55
2023-03-26T01:08:25.986Z,1.95
2023-03-26T01:10:29.996Z,2.10
2023-03-26T01:12:33.015Z,1.83
2023-03-26T01:14:36.178Z,1.70
2023-03-26T01:16:44.918Z,1.95
2023-03-26T01:18:49.127Z,1.70
2023-03-26T01:20:58.489Z,1.58
2023-03-26T01:23:06.200Z,2.00
2023-03-26T01:25:10.601Z,1.80
2023-03-26T01:27:24.210Z,1.20
2023-03-26T01:29:34.184Z,1.95
2023-03-26T01:31:46.284Z,2.00
2023-03-26T01:33:53.252Z,2.30
2023-03-26T01:36:02.451Z,1.80
2023-03-26T01:38:18.503Z,2.17
2023-03-26T01:40:28.019Z,2.15
2023-03-26T01:42:37.171Z,1.75
2023-03-26T01:44:46.607Z,2.22
2023-03-26T01:46:50.902Z,1.92
2023-03-26T01:48:53.909Z,1.95
2023-03-26T01:50:58.780Z,1.50
2023-03-26T01:55:06.444Z,1.95
2023-03-26T01:57:18.643Z,1.70
2023-03-26T01:59:46.343Z,2.15
2023-03-26T02:01:59.159Z,1.90
2023-03-26T02:04:12.260Z,1.63
2023-03-26T02:06:21.386Z,1.70
2023-03-26T02:08:35.583Z,1.70
2023-03-26T02:10:44.088Z,1.70
2023-03-26T02:12:48.594Z,1.65
2023-03-26T02:14:52.962Z,2.10
2023-03-26T02:16:57.084Z,2.17
2023-03-26T02:19:00.371Z,1.65
2023-03-26T02:21:05.316Z,2.47
2023-03-26T02:23:08.765Z,1.70
2023-03-26T02:27:18.401Z,1.67
2023-03-26T02:29:22.770Z,2.20
2023-03-26T02:31:27.212Z,1.90
2023-03-26T02:33:31.155Z,1.35
2023-03-26T02:35:34.388Z,2.72
2023-03-26T02:37:38.961Z,2.00
2023-03-26T02:39:49.273Z,2.22
2023-03-26T02:42:01.474Z,1.92
2023-03-26T02:44:06.392Z,2.15
2023-03-26T02:46:29.086Z,1.98
2023-03-26T02:48:44.200Z,2.03
2023-03-26T02:50:54.594Z,2.22
2023-03-26T02:53:16.254Z,2.47
2023-03-26T02:55:23.421Z,2.13
2023-03-26T02:57:29.078Z,2.45
2023-03-26T02:59:31.825Z,2.95
2023-03-26T03:01:56.134Z,2.15
2023-03-26T03:04:01.384Z,2.55
2023-03-26T03:06:11.214Z,3.25
2023-03-26T03:08:19.338Z,2.88
2023-03-26T03:10:37.744Z,2.50
2023-03-26T03:12:45.667Z,3.35
2023-03-26T03:14:48.484Z,1.83
2023-03-26T03:16:51.572Z,1.85
2023-03-26T03:18:57.833Z,2.28
2023-03-26T03:21:07.369Z,2.35
2023-03-26T03:23:10.160Z,2.08
2023-03-26T03:25:17.405Z,1.95
2023-03-26T03:27:23.782Z,2.63
2023-03-26T03:29:33.545Z,1.98
2023-03-26T03:31:56.475Z,1.88
2023-03-26T03:34:21.667Z,2.65
2023-03-26T03:36:30.304Z,1.88
2023-03-26T03:38:40.241Z,2.25
2023-03-26T03:40:44.783Z,2.00
2023-03-26T03:42:47.996Z,2.22
2023-03-26T03:44:58.031Z,1.77
2023-03-26T03:47:33.028Z,2.70
2023-03-26T03:49:37.329Z,1.92
2023-03-26T03:51:41.009Z,1.83
2023-03-26T03:53:56.533Z,2.17
2023-03-26T03:56:29.081Z,2.00
2023-03-26T03:58:58.208Z,1.98
2023-03-26T04:01:06.972Z,2.10
2023-03-26T04:03:33.121Z,3.00
2023-03-26T04:05:38.617Z,2.05
2023-03-26T04:07:41.508Z,1.75
2023-03-26T04:09:44.308Z,2.60
2023-03-26T04:11:52.325Z,2.10
2023-03-26T04:14:15.334Z,1.73
2023-03-26T04:16:43.975Z,3.38
2023-03-26T04:18:46.718Z,2.25
2023-03-26T04:20:52.286Z,2.40
2023-03-26T04:23:00.484Z,1.90
2023-03-26T04:25:05.169Z,2.20
2023-03-26T04:27:17.019Z,1.67
2023-03-26T04:29:23.967Z,1.80
2023-03-26T04:31:30.371Z,2.22
2023-03-26T04:33:35.939Z,2.10
2023-03-26T04:35:41.694Z,2.42
2023-03-26T04:37:47.683Z,2.13
2023-03-26T04:39:55.391Z,2.00
2023-03-26T04:41:58.959Z,2.60
2023-03-26T04:44:08.893Z,1.60
2023-03-26T04:46:38.044Z,1.92
2023-03-26T04:48:50.995Z,2.47
2023-03-26T04:50:54.109Z,2.22
2023-03-26T04:52:59.927Z,1.90
2023-03-26T04:55:25.630Z,1.92
2023-03-26T04:57:46.098Z,2.05
2023-03-26T05:00:14.776Z,2.35
2023-03-26T05:02:18.830Z,2.03
2023-03-26T05:04:26.662Z,1.80
2023-03-26T05:06:30.310Z,2.42
2023-03-26T05:08:34.711Z,2.30
2023-03-26T05:10:37.627Z,2.63
2023-03-26T05:12:46.435Z,2.42
2023-03-26T05:14:53.618Z,2.20
2023-03-26T05:17:10.645Z,2.28
2023-03-26T05:19:15.079Z,2.97
2023-03-26T05:21:18.047Z,2.80
2023-03-26T05:23:21.020Z,2.13
2023-03-26T05:25:31.431Z,2.42
2023-03-26T05:27:36.132Z,2.45
2023-03-26T05:29:38.868Z,4.07
2023-03-26T05:31:41.682Z,2.22
2023-03-26T05:33:44.568Z,1.95
2023-03-26T05:35:50.581Z,1.55
2023-03-26T05:37:53.490Z,2.10
2023-03-26T05:39:59.794Z,2.17
2023-03-26T05:42:33.254Z,2.58
2023-03-26T05:44:58.907Z,1.98
2023-03-26T05:47:04.509Z,2.40
2023-03-26T05:49:07.633Z,1.90
2023-03-26T05:51:12.366Z,2.70
2023-03-26T05:53:19.186Z,2.13
2023-03-26T05:55:40.757Z,2.75
2023-03-26T05:58:08.189Z,2.33
2023-03-26T06:00:29.528Z,2.10
2023-03-26T06:02:32.930Z,2.22
2023-03-26T06:05:09.814Z,2.33
2023-03-26T06:07:39.021Z,2.20
2023-03-26T06:11:56.892Z,1.70
2023-03-26T06:14:01.643Z,3.17
2023-03-26T06:16:05.268Z,1.88
2023-03-26T06:18:11.009Z,2.22
2023-03-26T06:20:25.533Z,1.90
2023-03-26T06:22:29.472Z,2.50
2023-03-26T06:24:48.546Z,2.80
2023-03-26T06:27:09.832Z,2.80
2023-03-26T06:29:49.048Z,2.35
2023-03-26T06:32:19.758Z,2.50
2023-03-26T06:34:43.479Z,2.47
2023-03-26T06:36:48.638Z,2.40
2023-03-26T06:38:51.692Z,2.25
2023-03-26T06:40:55.050Z,2.03
2023-03-26T06:43:08.606Z,2.35
2023-03-26T06:45:34.514Z,1.90
2023-03-26T06:48:09.770Z,2.13
2023-03-26T06:50:35.623Z,2.03
2023-03-26T06:52:57.823Z,2.05
2023-03-26T06:55:15.772Z,2.30
2023-03-26T06:57:42.644Z,2.38
2023-03-26T07:00:13.437Z,1.95
2023-03-26T07:02:37.272Z,2.30
2023-03-26T07:04:59.379Z,2.03
2023-03-26T07:07:21.722Z,2.53
2023-03-26T07:09:53.809Z,4.05
2023-03-26T07:12:26.977Z,2.55
2023-03-26T07:14:53.007Z,1.67
2023-03-26T07:16:59.088Z,2.20
2023-03-26T07:19:24.777Z,2.33
2023-03-26T07:23:31.584Z,2.95
2023-03-26T07:25:54.978Z,2.67
2023-03-26T07:28:11.503Z,2.33
2023-03-26T07:30:48.019Z,3.15
2023-03-26T07:33:17.029Z,2.08
2023-03-26T07:36:07.906Z,1.90
2023-03-26T07:38:40.890Z,2.35
2023-03-26T07:41:09.712Z,2.22
2023-03-26T07:43:58.056Z,2.15
2023-03-26T07:46:29.684Z,2.35
2023-03-26T07:49:00.001Z,2.10
2023-03-26T07:51:19.953Z,2.42
2023-03-26T07:53:30.152Z,2.28
2023-03-26T07:55:53.630Z,2.55
2023-03-26T07:58:33.469Z,2.75
2023-03-26T08:01:10.044Z,2.13
2023-03-26T08:03:26.788Z,2.95
2023-03-26T08:05:33.556Z,2.00
2023-03-26T08:08:07.403Z,2.35
2023-03-26T08:10:22.504Z,2.63
2023-03-26T08:12:47.287Z,2.15
2023-03-26T08:14:58.271Z,2.40
2023-03-26T08:17:06.732Z,2.55
2023-03-26T08:19:28.576Z,2.40
2023-03-26T08:21:37.988Z,2.60
2023-03-26T08:24:01.528Z,2.13
2023-03-26T08:26:10.049Z,2.60
2023-03-26T08:28:24.123Z,2.33
2023-03-26T08:30:28.237Z,1.73
2023-03-26T08:32:31.591Z,2.53
2023-03-26T08:34:34.480Z,2.97
2023-03-26T08:36:37.286Z,2.40
2023-03-26T08:38:40.052Z,2.75
2023-03-26T08:41:17.032Z,3.10
2023-03-26T08:43:48.965Z,2.50
2023-03-26T08:46:23.214Z,3.13
2023-03-26T08:49:00.461Z,3.13
2023-03-26T08:51:44.800Z,3.20
2023-03-26T08:54:36.152Z,2.35
2023-03-26T08:56:53.087Z,2.70
2023-03-26T08:59:20.056Z,2.70
2023-03-26T09:02:07.850Z,3.17
2023-03-26T09:04:42.739Z,2.88
2023-03-26T09:07:14.252Z,3.85
2023-03-26T09:09:59.125Z,2.10
2023-03-26T09:12:52.678Z,3.78
2023-03-26T09:15:35.043Z,3.00
2023-03-26T09:18:28.618Z,3.22
2023-03-26T09:24:19.708Z,2.83
2023-03-26T09:26:27.886Z,2.55
2023-03-26T09:29:14.485Z,2.47
2023-03-26T09:31:48.211Z,2.17
2023-03-26T09:34:00.500Z,1.60
2023-03-26T09:36:22.340Z,2.42
2023-03-26T09:38:46.074Z,2.13
2023-03-26T09:40:59.709Z,1.77
2023-03-26T09:43:26.541Z,1.70
2023-03-26T09:45:54.498Z,1.80
2023-03-26T09:48:39.791Z,1.85
2023-03-26T09:50:55.185Z,1.63
2023-03-26T09:53:09.333Z,1.58
2023-03-26T09:55:29.919Z,1.83
2023-03-26T09:57:53.821Z,1.70
2023-03-26T10:00:23.996Z,2.38
2023-03-26T10:02:45.925Z,2.10
2023-03-26T10:05:41.462Z,1.70
2023-03-26T10:08:09.347Z,1.80
2023-03-26T10:10:22.678Z,1.98
2023-03-26T10:12:34.709Z,1.92
2023-03-26T10:14:45.241Z,2.10
2023-03-26T10:17:01.385Z,1.83
2023-03-26T10:19:22.135Z,1.80
2023-03-26T10:21:36.018Z,1.77
2023-03-26T10:24:07.905Z,2.58
2023-03-26T10:26:41.689Z,2.53
2023-03-26T10:29:20.260Z,2.30
2023-03-26T10:31:41.367Z,2.13
2023-03-26T10:33:54.992Z,2.70
2023-03-26T10:36:13.275Z,3.45
2023-03-26T10:38:23.365Z,2.50
2023-03-26T10:40:32.146Z,2.78
2023-03-26T10:42:56.466Z,2.20
2023-03-26T10:45:15.033Z,2.78
2023-03-26T10:47:39.115Z,1.85
2023-03-26T10:50:22.650Z,3.55
2023-03-26T10:52:35.662Z,2.65
2023-03-26T10:54:49.514Z,3.03
2023-03-26T10:56:52.714Z,2.28
2023-03-26T10:58:57.343Z,2.47
2023-03-26T11:01:04.694Z,3.10
2023-03-26T11:03:43.982Z,2.53
2023-03-26T11:05:54.006Z,2.40
2023-03-26T11:08:04.719Z,2.58
2023-03-26T11:10:12.272Z,2.53
2023-03-26T11:12:28.465Z,1.98
2023-03-26T11:14:39.723Z,3.10
2023-03-26T11:16:55.337Z,2.88
2023-03-26T11:19:05.532Z,1.95
2023-03-26T11:21:19.056Z,2.25
2023-03-26T11:23:36.458Z,1.48
2023-03-26T11:25:49.397Z,2.38
2023-03-26T11:28:07.073Z,1.55
2023-03-26T11:30:22.270Z,1.60
2023-03-26T11:34:37.939Z,0.93
2023-03-26T11:36:45.096Z,1.45
2023-03-26T11:38:50.316Z,0.93
2023-03-26T11:41:00.344Z,1.05
2023-03-26T11:43:27.068Z,1.40
2023-03-26T11:45:33.873Z,1.60
2023-03-26T11:47:41.654Z,0.73
2023-03-26T11:49:50.067Z,1.75
2023-03-26T11:51:53.345Z,1.30
2023-03-26T11:53:57.654Z,1.00
2023-03-26T11:56:04.067Z,2.08
2023-03-26T11:58:24.237Z,0.65
2023-03-26T12:00:30.212Z,1.58
2023-03-26T12:02:40.313Z,0.60
2023-03-26T12:04:45.642Z,1.00
2023-03-26T12:06:57.650Z,1.00
2023-03-26T12:09:00.738Z,0.85
2023-03-26T12:11:09.284Z,0.73
2023-03-26T12:13:29.478Z,1.00
2023-03-26T12:15:38.811Z,0.88
2023-03-26T12:17:42.240Z,1.20
2023-03-26T12:19:46.618Z,0.80
2023-03-26T12:21:51.098Z,1.23
2023-03-26T12:24:00.231Z,0.95
2023-03-26T12:26:15.041Z,1.25
2023-03-26T12:28:19.792Z,1.00
2023-03-26T12:32:43.387Z,1.20
2023-03-26T12:34:50.586Z,0.80
2023-03-26T12:36:55.993Z,1.05
2023-03-26T12:39:17.115Z,1.05
2023-03-26T12:44:42.183Z,1.30
2023-03-26T12:44:50.058Z,1.75
2023-03-26T12:47:56.512Z,0.75
2023-03-26T12:49:12.496Z,1.10
2023-03-26T12:51:27.676Z,0.73
2023-03-26T12:53:40.954Z,0.93
2023-03-26T12:56:00.249Z,1.00
2023-03-26T12:58:15.431Z,1.00
2023-03-26T13:02:50.752Z,1.70
2023-03-26T13:05:09.603Z,1.00
2023-03-26T13:07:22.310Z,0.93
2023-03-26T13:09:47.728Z,0.95
2023-03-26T13:12:03.714Z,1.25
2023-03-26T13:14:19.524Z,1.67
2023-03-26T13:16:29.784Z,1.63
2023-03-26T13:18:43.514Z,1.35
2023-03-26T13:20:52.595Z,1.00
2023-03-26T13:23:03.225Z,1.38
2023-03-26T13:25:20.594Z,1.08
2023-03-26T13:27:42.877Z,1.20
2023-03-26T13:29:56.487Z,0.90
2023-03-26T13:32:09.264Z,1.17
2023-03-26T13:34:23.074Z,0.88
2023-03-26T13:36:37.641Z,1.30
2023-03-26T13:38:58.545Z,0.88
2023-03-26T13:41:08.273Z,1.08
2023-03-26T13:43:27.881Z,1.00
2023-03-26T13:45:45.446Z,1.38
2023-03-26T13:47:51.886Z,1.10
2023-03-26T13:50:00.507Z,0.80
2023-03-26T13:52:09.941Z,1.20
2023-03-26T13:54:19.646Z,1.00
2023-03-26T13:56:28.740Z,1.20
2023-03-26T13:58:39.436Z,1.25
2023-03-26T14:01:04.746Z,1.08
2023-03-26T14:03:17.405Z,1.30
2023-03-26T14:05:25.843Z,1.08
2023-03-26T14:07:35.409Z,1.20
2023-03-26T14:09:45.587Z,1.08
2023-03-26T14:11:59.364Z,1.10
2023-03-26T14:14:09.876Z,1.10
2023-03-26T14:16:18.545Z,1.38
2023-03-26T14:18:32.252Z,1.20
2023-03-26T14:21:10.821Z,1.13
2023-03-26T14:23:35.266Z,0.88
2023-03-26T14:26:05.634Z,1.20
2023-03-26T14:28:24.255Z,1.00
2023-03-26T14:30:56.472Z,1.10
2023-03-26T14:33:27.433Z,1.40
2023-03-26T14:35:38.509Z,1.30
2023-03-26T14:38:01.473Z,1.17
2023-03-26T14:40:31.922Z,1.08
2023-03-26T14:42:42.549Z,1.70
2023-03-26T14:45:15.523Z,0.90
2023-03-26T14:47:21.553Z,1.00
2023-03-26T14:49:53.686Z,1.13
2023-03-26T14:52:04.625Z,1.20
2023-03-26T14:54:12.065Z,0.70
2023-03-26T14:56:43.319Z,0.90
2023-03-26T14:59:17.877Z,1.35
2023-03-26T15:01:27.312Z,0.80
2023-03-26T15:04:03.991Z,0.80
2023-03-26T15:06:41.119Z,1.30
2023-03-26T15:09:11.622Z,0.93
2023-03-26T15:11:26.003Z,1.00
2023-03-26T15:13:50.065Z,0.70
2023-03-26T15:16:25.590Z,0.65
2023-03-26T15:19:13.940Z,0.90
2023-03-26T15:21:53.385Z,0.95
2023-03-26T15:24:25.497Z,0.90
2023-03-26T15:27:08.310Z,0.68
2023-03-26T15:29:33.968Z,0.68
2023-03-26T15:32:16.109Z,1.00
2023-03-26T15:34:51.551Z,0.70
2023-03-26T15:37:42.343Z,0.60
2023-03-26T15:40:08.250Z,1.10
2023-03-26T15:44:40.979Z,0.57
2023-03-26T15:47:19.176Z,0.60
2023-03-26T15:49:31.556Z,0.50
2023-03-26T15:51:52.165Z,0.70
2023-03-26T15:54:00.966Z,0.70
2023-03-26T15:56:27.375Z,0.68
2023-03-26T15:58:34.614Z,0.50
2023-03-26T16:00:45.254Z,0.60
2023-03-26T16:03:00.104Z,0.40
2023-03-26T16:05:26.475Z,0.75
2023-03-26T16:07:55.251Z,0.63
2023-03-26T16:10:18.191Z,0.40
2023-03-26T16:12:33.982Z,0.60
2023-03-26T16:14:46.768Z,0.68
2023-03-26T16:16:59.545Z,0.77
2023-03-26T16:19:41.126Z,0.63
2023-03-26T16:21:56.193Z,0.82
2023-03-26T16:24:18.792Z,0.50
2023-03-26T16:26:26.451Z,1.00
2023-03-26T16:28:33.494Z,1.60
2023-03-26T16:30:36.930Z,0.90
2023-03-26T16:32:43.026Z,0.73
2023-03-26T16:34:53.938Z,0.80
2023-03-26T16:37:00.452Z,0.80
2023-03-26T16:39:25.256Z,0.68
2023-03-26T16:41:31.247Z,0.70
2023-03-26T16:43:45.082Z,0.70
2023-03-26T16:45:53.697Z,0.80
2023-03-26T16:48:07.785Z,0.73
2023-03-26T16:50:19.883Z,0.70
2023-03-26T16:52:31.232Z,0.95
2023-03-26T16:54:46.010Z,0.82
2023-03-26T16:56:59.567Z,1.05
2023-03-26T16:59:09.352Z,0.70
2023-03-26T17:01:30.207Z,0.80
2023-03-26T17:03:54.505Z,0.80
2023-03-26T17:06:06.340Z,1.08
2023-03-26T17:08:35.974Z,0.80
2023-03-26T17:10:48.253Z,0.65
2023-03-26T17:12:56.544Z,0.80
2023-03-26T17:15:08.451Z,0.70
2023-03-26T17:17:26.114Z,1.10
2023-03-26T17:19:36.550Z,0.93
2023-03-26T17:21:55.503Z,0.70
2023-03-26T17:24:07.219Z,1.02
2023-03-26T17:26:24.666Z,0.90
2023-03-26T17:28:49.405Z,0.75
2023-03-26T17:31:03.188Z,0.68
2023-03-26T17:33:16.352Z,0.90
2023-03-26T17:35:35.837Z,0.90
2023-03-26T17:37:45.564Z,0.70
2023-03-26T17:40:36.544Z,1.08
2023-03-26T17:43:04.865Z,1.40
2023-03-26T17:45:17.611Z,0.95
2023-03-26T17:47:34.212Z,1.52
2023-03-26T17:49:40.591Z,1.08
2023-03-26T17:51:50.386Z,1.88
2023-03-26T17:53:53.345Z,1.38
2023-03-26T17:56:00.994Z,1.05
2023-03-26T17:58:07.124Z,1.08
2023-03-26T18:00:18.221Z,0.70
2023-03-26T18:02:28.634Z,1.42
2023-03-26T18:04:35.690Z,0.90
2023-03-26T18:06:55.471Z,0.73
2023-03-26T18:09:11.394Z,0.55
2023-03-26T18:11:52.581Z,0.90
2023-03-26T18:14:29.699Z,1.02
2023-03-26T18:16:39.633Z,0.70
2023-03-26T18:18:49.506Z,1.00
2023-03-26T18:20:54.579Z,0.80
2023-03-26T18:22:57.573Z,1.23
2023-03-26T18:25:03.075Z,1.02
2023-03-26T18:27:12.276Z,1.15
2023-03-26T18:29:23.708Z,0.90
2023-03-26T18:31:27.885Z,1.20
2023-03-26T18:33:42.817Z,0.90
2023-03-26T18:35:47.295Z,1.05
2023-03-26T18:37:53.324Z,0.90
2023-03-26T18:39:59.329Z,0.80
2023-03-26T18:42:02.297Z,1.15
2023-03-26T18:44:07.273Z,1.27
2023-03-26T18:46:13.259Z,1.30
2023-03-26T18:48:20.451Z,3.50
2023-03-26T18:50:27.751Z,2.85
2023-03-26T18:52:32.992Z,1.35
2023-03-26T18:54:37.122Z,2.83
2023-03-26T18:56:41.880Z,1.70
2023-03-26T18:58:51.986Z,1.27
2023-03-26T19:00:59.688Z,1.63
2023-03-26T19:03:06.902Z,1.20
2023-03-26T19:05:15.120Z,1.77
2023-03-26T19:07:23.293Z,1.67
2023-03-26T19:09:31.945Z,1.58
2023-03-26T19:11:40.216Z,1.23
2023-03-26T19:13:43.102Z,1.63
2023-03-26T19:15:47.364Z,1.95
2023-03-26T19:17:56.542Z,1.95
2023-03-26T19:20:01.673Z,1.73
2023-03-26T19:22:06.952Z,2.33
2023-03-26T19:24:11.867Z,1.65
2023-03-26T19:28:20.949Z,1.48
2023-03-26T19:30:30.097Z,1.73
2023-03-26T19:32:34.433Z,1.20
2023-03-26T19:34:40.434Z,1.20
2023-03-26T19:36:58.010Z,1.58
2023-03-26T19:39:12.567Z,1.45
2023-03-26T19:41:21.975Z,1.37
2023-03-26T19:43:26.278Z,1.58
2023-03-26T19:45:29.823Z,1.30
2023-03-26T19:47:52.023Z,1.10
2023-03-26T19:50:01.202Z,0.90
2023-03-26T19:52:13.565Z,1.30
2023-03-26T19:54:19.122Z,1.25
2023-03-26T19:56:22.814Z,0.90
2023-03-26T19:58:27.164Z,1.30
2023-03-26T20:00:30.579Z,1.10
2023-03-26T20:02:33.471Z,0.80
2023-03-26T20:04:36.365Z,0.73
2023-03-26T20:06:43.698Z,1.27
2023-03-26T20:08:50.523Z,1.00
2023-03-26T20:10:54.696Z,0.80
2023-03-26T20:12:58.337Z,1.10
2023-03-26T20:15:01.914Z,1.58
2023-03-26T20:17:05.693Z,1.05
2023-03-26T20:19:08.766Z,0.88
2023-03-26T20:21:12.828Z,0.93
2023-03-26T20:23:17.542Z,0.98
2023-03-26T20:25:25.633Z,1.10
2023-03-26T20:27:29.954Z,1.33
2023-03-26T20:29:32.881Z,1.08
2023-03-26T20:31:35.739Z,1.00
2023-03-26T20:33:39.550Z,1.10
2023-03-26T20:35:43.061Z,0.95
2023-03-26T20:37:46.059Z,1.27
2023-03-26T20:39:48.888Z,1.45
2023-03-26T20:41:54.608Z,1.38
2023-03-26T20:43:57.654Z,1.40
2023-03-26T20:46:00.662Z,1.30
2023-03-26T20:48:03.621Z,1.15
2023-03-26T20:50:07.531Z,1.45
2023-03-26T20:52:14.092Z,1.38
2023-03-26T20:54:18.893Z,1.20
2023-03-26T20:58:31.402Z,1.25
2023-03-26T21:00:37.062Z,1.58
2023-03-26T21:04:47.253Z,1.13
2023-03-26T21:06:50.834Z,1.42
2023-03-26T21:08:55.046Z,1.02
2023-03-26T21:11:01.968Z,1.20
2023-03-26T21:13:08.500Z,0.98
2023-03-26T21:15:22.825Z,1.23
2023-03-26T21:19:30.455Z,1.92
2023-03-26T21:21:47.466Z,1.13
2023-03-26T21:23:59.248Z,1.00
2023-03-26T21:26:07.649Z,1.17
2023-03-26T21:28:32.229Z,1.00
2023-03-26T21:30:44.388Z,1.10
2023-03-26T21:32:48.048Z,1.00
2023-03-26T21:34:58.160Z,1.40
2023-03-26T21:37:03.001Z,1.80
2023-03-26T21:39:06.485Z,1.40
2023-03-26T21:41:17.141Z,0.90
2023-03-26T21:43:21.405Z,1.23
2023-03-26T21:45:24.833Z,1.75
2023-03-26T21:47:29.563Z,1.33
2023-03-26T21:49:33.098Z,1.40
2023-03-26T21:51:36.652Z,1.15
2023-03-26T21:53:39.972Z,0.82
2023-03-26T21:55:54.590Z,1.08
2023-03-26T21:58:23.019Z,1.35
2023-03-26T22:00:41.125Z,1.67
2023-03-26T22:03:05.239Z,1.55
2023-03-26T22:05:15.319Z,2.15
2023-03-26T22:07:21.626Z,1.52
2023-03-26T22:09:33.883Z,1.70
2023-03-26T22:11:38.890Z,1.63
2023-03-26T22:13:42.145Z,1.48
2023-03-26T22:15:46.087Z,1.73
2023-03-26T22:17:53.634Z,1.75
2023-03-26T22:19:58.198Z,1.30
2023-03-26T22:22:01.570Z,1.42
2023-03-26T22:24:06.908Z,1.60
2023-03-26T22:26:09.735Z,1.75
2023-03-26T22:28:12.906Z,1.30
2023-03-26T22:30:16.425Z,1.48
2023-03-26T22:32:19.220Z,1.52
2023-03-26T22:34:23.007Z,1.80
2023-03-26T22:36:27.330Z,1.95
2023-03-26T22:38:30.633Z,1.95
2023-03-26T22:40:33.366Z,1.48
2023-03-26T22:42:36.532Z,1.48
2023-03-26T22:44:40.073Z,1.30
2023-03-26T22:46:44.013Z,1.48
2023-03-26T22:48:48.265Z,1.47
2023-03-26T22:50:58.364Z,1.08
2023-03-26T22:53:02.511Z,1.48
2023-03-26T22:55:05.842Z,1.38
2023-03-26T22:57:08.781Z,1.58
2023-03-26T22:59:11.682Z,1.60
2023-03-26T23:01:17.546Z,1.77
2023-03-26T23:03:21.848Z,1.80
2023-03-26T23:05:38.671Z,2.10
2023-03-26T23:07:42.259Z,2.13
2023-03-26T23:09:46.439Z,1.90
2023-03-26T23:11:49.359Z,1.73
2023-03-26T23:13:54.752Z,1.77
2023-03-26T23:15:57.873Z,1.95
2023-03-26T23:18:01.912Z,1.67
2023-03-26T23:20:13.529Z,1.88
2023-03-26T23:22:16.659Z,1.70
2023-03-26T23:24:19.707Z,1.65
2023-03-26T23:26:24.189Z,1.92
2023-03-26T23:28:27.515Z,2.10
2023-03-26T23:30:30.407Z,1.67
2023-03-26T23:32:37.635Z,1.88
2023-03-26T23:34:52.328Z,2.05
2023-03-26T23:36:55.542Z,2.20
2023-03-26T23:38:58.854Z,2.10
2023-03-26T23:41:01.622Z,2.53
2023-03-26T23:43:05.791Z,2.53
2023-03-26T23:45:09.329Z,2.47
2023-03-26T23:47:12.122Z,2.58
2023-03-26T23:49:15.212Z,2.75
2023-03-26T23:51:19.795Z,2.17
2023-03-26T23:53:24.693Z,2.83
2023-03-26T23:55:28.258Z,2.75
2023-03-26T23:57:31.808Z,3.22
2023-03-26T23:59:36.093Z,3.95
